Details From PADU - UNALASKA
To PADK - ADAK
Flight Number -
Tags decoded
Created
Modified
Stats Distance 695 nm / 1,287 km
Max Altitude 0 ft / 0 m
Waypoints 4
Social Downloads 2
Likes 0
Share VATSIM

Download

Looking for another format? Having issues loading an existing format? Contact us
Advertisement - Login to hide

Notes

Requested: PADU ODK J623 CDB J115 DUT PADK Unmatched points: J623

Route

PADU CDB J115 DUT PADK

ID Type Via Altitude Latitude Longitude Leg Dist Tot Dist Heading (true) Name
O PADU APT - 0 ft / 0 m 53.89907˚ -166.54506˚ - 0 nm - UNALASKA
CDB VOR - 0 ft / 0 m 55.26739˚ -162.77425˚ 154 nm 154 nm 56° / 59° COLD BAY VORTAC
DUT NDB J115 (AWY-HI) 0 ft / 0 m 53.90514˚ -166.54786˚ 154 nm 309 nm 240° / 237° DUTCH HARBOR NDB
O PADK APT - 0 ft / 0 m 51.87798˚ -176.64574˚ 385 nm 694 nm 256° / 248° ADAK

Altitude Profile

Advertisement - Login to hide

Weather


0- 5 10 15 20 25 30 35+ Temperature / ° C

Clouds and Precipitation
Forecast for 2018-05-25 12:00 UTC. Updated 6 hours ago

Ground ~20,000 ft ~40,000 ft Winds

PADU

Details ICAO PADU (DUT)
Name UNALASKA
Region USA (Alaska)
Timezone America/Adak (UTC-9.0)
Stats Elevation 22 ft / 7 m (AMSL)
Location 53.899070° -166.545064°
Runways 1
Magnetic Variation 9.032° E

METAR

PADU 251608Z VRB03KT 10SM -RA FEW008 BKN014 OVC020 06/03 A2963 RMK AO2 CS P0000

Decode

TAF

PADU 251139Z 2512/2612 VRB05KT P6SM -SHRA SCT015 BKN025 OVC050 FM251600 34008KT P6SM VCSH SCT015 OVC025 FM252100 34012KT P6SM SCT015 BKN025

Decode

Departure Runways

ID Width Length Bearing (true) Bearing (mag) Surface Threshold Offset Overrun Length
12 100 ft / 30 m 3,895 ft / 1,187 m 135.64° 126.61° Asphalt 100 ft / 30 m 0 ft / 0 m
30 100 ft / 30 m 3,895 ft / 1,187 m 315.65° 306.62° Asphalt 101 ft / 31 m 0 ft / 0 m

PADK

Details ICAO PADK (ADK)
Name ADAK
Region USA (Alaska)
Timezone America/Adak (UTC-9.0)
Stats Elevation 18 ft / 5 m (AMSL)
Location 51.877976° -176.645742°
Runways 2
Magnetic Variation 4.678° E

METAR

PADK 251641Z AUTO 34011KT 10SM BKN011 OVC042 05/03 A2998

Decode

TAF

Not found

Destination Runways

ID Width Length Bearing (true) Bearing (mag) Surface Threshold Offset Overrun Length
05 200 ft / 61 m 7,772 ft / 2,369 m 60.49° 55.81° Asphalt 0 ft / 0 m 751 ft / 229 m
18 200 ft / 61 m 7,603 ft / 2,317 m 185.39° 180.71° Asphalt 0 ft / 0 m 0 ft / 0 m
23 200 ft / 61 m 7,772 ft / 2,369 m 240.52° 235.84° Asphalt 0 ft / 0 m 151 ft / 46 m
36 200 ft / 61 m 7,603 ft / 2,317 m 5.38° 0.70° Asphalt 0 ft / 0 m 0 ft / 0 m

Approach Navaids

Runway Type Ident Frequency Range Bearing (true) Bearing (mag) Slope Elevation
23 Localiser IBER 108.90 MHz 18 nm / 33 km 240.61° 235.93° - 18 ft / 5 m (AMSL)
23 Glidescope IBER 108.90 MHz 10 nm / 19 km 240.51° 235.83° 2.75° 18 ft / 5 m (AMSL)

Popular Alternatives